sensor_id;sensor_type;location;lat;lon;timestamp;P1;durP1;ratioP1;P2;durP2;ratioP2
29168;SDS011;16219;42.864;23.360;2022-10-16T00:01:05;1.20;;;1.13;;
29168;SDS011;16219;42.864;23.360;2022-10-16T00:03:33;2.42;;;1.60;;
29168;SDS011;16219;42.864;23.360;2022-10-16T00:06:01;1.55;;;1.30;;
29168;SDS011;16219;42.864;23.360;2022-10-16T00:08:28;1.15;;;1.05;;
29168;SDS011;16219;42.864;23.360;2022-10-16T00:11:00;0.82;;;0.82;;
29168;SDS011;16219;42.864;23.360;2022-10-16T00:13:28;1.40;;;1.17;;
29168;SDS011;16219;42.864;23.360;2022-10-16T00:15:56;2.85;;;1.27;;
29168;SDS011;16219;42.864;23.360;2022-10-16T00:18:25;2.20;;;1.48;;
29168;SDS011;16219;42.864;23.360;2022-10-16T00:20:53;1.50;;;1.40;;
29168;SDS011;16219;42.864;23.360;2022-10-16T00:23:20;1.10;;;1.10;;
29168;SDS011;16219;42.864;23.360;2022-10-16T00:25:55;5.47;;;1.48;;
29168;SDS011;16219;42.864;23.360;2022-10-16T00:28:23;1.85;;;1.48;;
29168;SDS011;16219;42.864;23.360;2022-10-16T00:30:50;1.42;;;1.33;;
29168;SDS011;16219;42.864;23.360;2022-10-16T00:33:17;1.55;;;1.02;;
29168;SDS011;16219;42.864;23.360;2022-10-16T00:35:46;3.03;;;1.48;;
29168;SDS011;16219;42.864;23.360;2022-10-16T00:38:13;1.20;;;1.20;;
29168;SDS011;16219;42.864;23.360;2022-10-16T00:40:41;0.73;;;0.73;;
29168;SDS011;16219;42.864;23.360;2022-10-16T00:43:12;1.48;;;1.38;;
29168;SDS011;16219;42.864;23.360;2022-10-16T00:45:41;1.27;;;1.20;;
29168;SDS011;16219;42.864;23.360;2022-10-16T00:48:10;1.10;;;1.08;;
29168;SDS011;16219;42.864;23.360;2022-10-16T00:50:40;1.05;;;1.05;;
29168;SDS011;16219;42.864;23.360;2022-10-16T00:53:10;1.38;;;1.10;;
29168;SDS011;16219;42.864;23.360;2022-10-16T00:55:38;3.17;;;1.20;;
29168;SDS011;16219;42.864;23.360;2022-10-16T00:58:05;1.65;;;1.38;;
29168;SDS011;16219;42.864;23.360;2022-10-16T01:00:33;8.02;;;1.80;;
29168;SDS011;16219;42.864;23.360;2022-10-16T01:03:01;0.85;;;0.80;;
29168;SDS011;16219;42.864;23.360;2022-10-16T01:05:30;3.90;;;1.00;;
29168;SDS011;16219;42.864;23.360;2022-10-16T01:08:04;0.95;;;0.90;;
29168;SDS011;16219;42.864;23.360;2022-10-16T01:10:40;1.00;;;1.00;;
29168;SDS011;16219;42.864;23.360;2022-10-16T01:13:15;2.53;;;1.35;;
29168;SDS011;16219;42.864;23.360;2022-10-16T01:15:48;6.50;;;1.85;;
29168;SDS011;16219;42.864;23.360;2022-10-16T01:18:24;1.20;;;1.08;;
29168;SDS011;16219;42.864;23.360;2022-10-16T01:20:59;0.85;;;0.82;;
29168;SDS011;16219;42.864;23.360;2022-10-16T01:23:35;1.42;;;0.95;;
29168;SDS011;16219;42.864;23.360;2022-10-16T01:26:15;2.28;;;1.92;;
29168;SDS011;16219;42.864;23.360;2022-10-16T01:29:00;0.88;;;0.88;;
29168;SDS011;16219;42.864;23.360;2022-10-16T01:31:34;1.45;;;1.27;;
29168;SDS011;16219;42.864;23.360;2022-10-16T01:34:06;1.85;;;1.50;;
29168;SDS011;16219;42.864;23.360;2022-10-16T01:36:39;0.80;;;0.80;;
29168;SDS011;16219;42.864;23.360;2022-10-16T01:39:12;0.60;;;0.60;;
29168;SDS011;16219;42.864;23.360;2022-10-16T01:41:41;1.23;;;1.13;;
29168;SDS011;16219;42.864;23.360;2022-10-16T01:44:15;1.65;;;1.40;;
29168;SDS011;16219;42.864;23.360;2022-10-16T01:46:46;3.42;;;1.40;;
29168;SDS011;16219;42.864;23.360;2022-10-16T01:49:15;1.38;;;1.25;;
29168;SDS011;16219;42.864;23.360;2022-10-16T01:51:44;1.45;;;1.25;;
29168;SDS011;16219;42.864;23.360;2022-10-16T01:54:14;1.80;;;1.52;;
29168;SDS011;16219;42.864;23.360;2022-10-16T01:56:46;1.08;;;0.98;;
29168;SDS011;16219;42.864;23.360;2022-10-16T01:59:16;2.60;;;1.48;;
29168;SDS011;16219;42.864;23.360;2022-10-16T02:01:47;1.10;;;1.05;;
29168;SDS011;16219;42.864;23.360;2022-10-16T02:04:21;0.60;;;0.60;;
29168;SDS011;16219;42.864;23.360;2022-10-16T02:06:54;0.88;;;0.88;;
29168;SDS011;16219;42.864;23.360;2022-10-16T02:09:23;0.73;;;0.73;;
29168;SDS011;16219;42.864;23.360;2022-10-16T02:11:51;1.20;;;1.17;;
29168;SDS011;16219;42.864;23.360;2022-10-16T02:14:22;0.98;;;0.98;;
29168;SDS011;16219;42.864;23.360;2022-10-16T02:16:50;1.90;;;1.08;;
29168;SDS011;16219;42.864;23.360;2022-10-16T02:19:17;0.75;;;0.75;;
29168;SDS011;16219;42.864;23.360;2022-10-16T02:21:49;2.20;;;1.05;;
29168;SDS011;16219;42.864;23.360;2022-10-16T02:24:19;1.35;;;1.02;;
29168;SDS011;16219;42.864;23.360;2022-10-16T02:26:56;1.65;;;1.40;;
29168;SDS011;16219;42.864;23.360;2022-10-16T02:29:31;0.98;;;0.88;;
29168;SDS011;16219;42.864;23.360;2022-10-16T02:32:04;1.05;;;1.00;;
29168;SDS011;16219;42.864;23.360;2022-10-16T02:34:34;0.70;;;0.70;;
29168;SDS011;16219;42.864;23.360;2022-10-16T02:37:03;0.70;;;0.70;;
29168;SDS011;16219;42.864;23.360;2022-10-16T02:39:32;0.90;;;0.90;;
29168;SDS011;16219;42.864;23.360;2022-10-16T02:42:01;5.53;;;1.55;;
29168;SDS011;16219;42.864;23.360;2022-10-16T02:44:28;1.38;;;1.23;;
29168;SDS011;16219;42.864;23.360;2022-10-16T02:46:56;10.52;;;0.93;;
29168;SDS011;16219;42.864;23.360;2022-10-16T02:49:23;3.05;;;0.90;;
29168;SDS011;16219;42.864;23.360;2022-10-16T02:51:50;1.10;;;1.00;;
29168;SDS011;16219;42.864;23.360;2022-10-16T02:54:17;1.20;;;0.80;;
29168;SDS011;16219;42.864;23.360;2022-10-16T02:56:44;0.80;;;0.80;;
29168;SDS011;16219;42.864;23.360;2022-10-16T02:59:12;0.88;;;0.88;;
29168;SDS011;16219;42.864;23.360;2022-10-16T03:01:39;3.28;;;1.23;;
29168;SDS011;16219;42.864;23.360;2022-10-16T03:04:08;1.00;;;0.88;;
29168;SDS011;16219;42.864;23.360;2022-10-16T03:06:35;1.17;;;1.10;;
29168;SDS011;16219;42.864;23.360;2022-10-16T03:09:02;1.05;;;0.80;;
29168;SDS011;16219;42.864;23.360;2022-10-16T03:11:29;0.52;;;0.52;;
29168;SDS011;16219;42.864;23.360;2022-10-16T03:13:57;1.00;;;0.77;;
29168;SDS011;16219;42.864;23.360;2022-10-16T03:16:24;0.65;;;0.65;;
29168;SDS011;16219;42.864;23.360;2022-10-16T03:18:51;2.10;;;1.02;;
29168;SDS011;16219;42.864;23.360;2022-10-16T03:21:20;1.70;;;1.00;;
29168;SDS011;16219;42.864;23.360;2022-10-16T03:23:47;0.85;;;0.85;;
29168;SDS011;16219;42.864;23.360;2022-10-16T03:26:14;0.80;;;0.80;;
29168;SDS011;16219;42.864;23.360;2022-10-16T03:28:41;1.40;;;1.15;;
29168;SDS011;16219;42.864;23.360;2022-10-16T03:31:08;1.33;;;0.70;;
29168;SDS011;16219;42.864;23.360;2022-10-16T03:33:35;1.55;;;1.45;;
29168;SDS011;16219;42.864;23.360;2022-10-16T03:36:02;1.90;;;1.38;;
29168;SDS011;16219;42.864;23.360;2022-10-16T03:38:31;1.65;;;1.45;;
29168;SDS011;16219;42.864;23.360;2022-10-16T03:40:58;3.60;;;1.02;;
29168;SDS011;16219;42.864;23.360;2022-10-16T03:43:25;2.65;;;1.20;;
29168;SDS011;16219;42.864;23.360;2022-10-16T03:45:52;0.82;;;0.82;;
29168;SDS011;16219;42.864;23.360;2022-10-16T03:48:19;2.55;;;1.33;;
29168;SDS011;16219;42.864;23.360;2022-10-16T03:50:46;1.00;;;1.00;;
29168;SDS011;16219;42.864;23.360;2022-10-16T03:53:15;1.40;;;1.17;;
29168;SDS011;16219;42.864;23.360;2022-10-16T03:55:44;1.08;;;0.98;;
29168;SDS011;16219;42.864;23.360;2022-10-16T03:58:11;1.48;;;1.38;;
29168;SDS011;16219;42.864;23.360;2022-10-16T04:00:39;1.58;;;1.23;;
29168;SDS011;16219;42.864;23.360;2022-10-16T04:03:08;2.17;;;1.38;;
29168;SDS011;16219;42.864;23.360;2022-10-16T04:05:35;1.52;;;1.42;;
29168;SDS011;16219;42.864;23.360;2022-10-16T04:08:03;5.15;;;1.70;;
29168;SDS011;16219;42.864;23.360;2022-10-16T04:10:30;0.90;;;0.82;;
29168;SDS011;16219;42.864;23.360;2022-10-16T04:12:59;1.23;;;1.13;;
29168;SDS011;16219;42.864;23.360;2022-10-16T04:15:27;1.45;;;1.02;;
29168;SDS011;16219;42.864;23.360;2022-10-16T04:17:54;2.08;;;1.30;;
29168;SDS011;16219;42.864;23.360;2022-10-16T04:20:21;1.33;;;1.23;;
29168;SDS011;16219;42.864;23.360;2022-10-16T04:22:48;0.98;;;0.98;;
29168;SDS011;16219;42.864;23.360;2022-10-16T04:25:18;1.30;;;1.20;;
29168;SDS011;16219;42.864;23.360;2022-10-16T04:27:45;0.95;;;0.93;;
29168;SDS011;16219;42.864;23.360;2022-10-16T04:30:14;1.02;;;0.82;;
29168;SDS011;16219;42.864;23.360;2022-10-16T04:32:41;0.93;;;0.93;;
29168;SDS011;16219;42.864;23.360;2022-10-16T04:35:08;1.45;;;1.35;;
29168;SDS011;16219;42.864;23.360;2022-10-16T04:37:35;2.55;;;1.83;;
29168;SDS011;16219;42.864;23.360;2022-10-16T04:40:03;1.27;;;0.90;;
29168;SDS011;16219;42.864;23.360;2022-10-16T04:42:30;3.05;;;2.00;;
29168;SDS011;16219;42.864;23.360;2022-10-16T04:44:58;2.88;;;2.50;;
29168;SDS011;16219;42.864;23.360;2022-10-16T04:47:27;4.00;;;3.25;;
29168;SDS011;16219;42.864;23.360;2022-10-16T04:49:54;14.85;;;5.07;;
29168;SDS011;16219;42.864;23.360;2022-10-16T04:52:22;7.82;;;6.10;;
29168;SDS011;16219;42.864;23.360;2022-10-16T04:54:50;8.98;;;7.93;;
29168;SDS011;16219;42.864;23.360;2022-10-16T04:57:17;18.83;;;11.63;;
29168;SDS011;16219;42.864;23.360;2022-10-16T04:59:44;22.30;;;12.02;;
29168;SDS011;16219;42.864;23.360;2022-10-16T05:02:11;13.63;;;9.80;;
29168;SDS011;16219;42.864;23.360;2022-10-16T05:04:39;17.73;;;12.18;;
29168;SDS011;16219;42.864;23.360;2022-10-16T05:07:06;15.07;;;12.23;;
29168;SDS011;16219;42.864;23.360;2022-10-16T05:09:33;12.10;;;10.80;;
29168;SDS011;16219;42.864;23.360;2022-10-16T05:12:00;56.05;;;14.73;;
29168;SDS011;16219;42.864;23.360;2022-10-16T05:14:28;16.77;;;12.45;;
29168;SDS011;16219;42.864;23.360;2022-10-16T05:16:56;29.83;;;19.15;;
29168;SDS011;16219;42.864;23.360;2022-10-16T05:19:23;27.27;;;17.02;;
29168;SDS011;16219;42.864;23.360;2022-10-16T05:21:51;17.80;;;14.48;;
29168;SDS011;16219;42.864;23.360;2022-10-16T05:24:18;17.90;;;12.35;;
29168;SDS011;16219;42.864;23.360;2022-10-16T05:26:45;11.20;;;10.07;;
29168;SDS011;16219;42.864;23.360;2022-10-16T05:29:13;10.48;;;7.45;;
29168;SDS011;16219;42.864;23.360;2022-10-16T05:31:40;15.82;;;8.82;;
29168;SDS011;16219;42.864;23.360;2022-10-16T05:34:07;4.75;;;3.40;;
29168;SDS011;16219;42.864;23.360;2022-10-16T05:36:34;3.80;;;2.50;;
29168;SDS011;16219;42.864;23.360;2022-10-16T05:39:03;5.50;;;5.07;;
29168;SDS011;16219;42.864;23.360;2022-10-16T05:41:30;6.25;;;5.60;;
29168;SDS011;16219;42.864;23.360;2022-10-16T05:43:57;10.52;;;3.85;;
29168;SDS011;16219;42.864;23.360;2022-10-16T05:46:24;3.95;;;3.65;;
29168;SDS011;16219;42.864;23.360;2022-10-16T05:48:51;6.97;;;5.72;;
29168;SDS011;16219;42.864;23.360;2022-10-16T05:51:21;6.65;;;5.03;;
29168;SDS011;16219;42.864;23.360;2022-10-16T05:53:48;6.43;;;3.85;;
29168;SDS011;16219;42.864;23.360;2022-10-16T05:56:16;2.97;;;2.67;;
29168;SDS011;16219;42.864;23.360;2022-10-16T05:58:44;6.80;;;3.90;;
29168;SDS011;16219;42.864;23.360;2022-10-16T06:01:12;9.98;;;3.47;;
29168;SDS011;16219;42.864;23.360;2022-10-16T06:03:40;2.67;;;2.47;;
29168;SDS011;16219;42.864;23.360;2022-10-16T06:06:08;2.58;;;2.38;;
29168;SDS011;16219;42.864;23.360;2022-10-16T06:08:36;2.15;;;2.00;;
29168;SDS011;16219;42.864;23.360;2022-10-16T06:11:03;1.60;;;1.50;;
29168;SDS011;16219;42.864;23.360;2022-10-16T06:13:33;1.85;;;1.75;;
29168;SDS011;16219;42.864;23.360;2022-10-16T06:16:00;2.20;;;2.00;;
29168;SDS011;16219;42.864;23.360;2022-10-16T06:18:28;5.55;;;2.50;;
29168;SDS011;16219;42.864;23.360;2022-10-16T06:20:56;2.35;;;1.88;;
29168;SDS011;16219;42.864;23.360;2022-10-16T06:23:24;2.75;;;2.55;;
29168;SDS011;16219;42.864;23.360;2022-10-16T06:25:52;7.18;;;2.53;;
29168;SDS011;16219;42.864;23.360;2022-10-16T06:28:19;4.95;;;1.83;;
29168;SDS011;16219;42.864;23.360;2022-10-16T06:30:47;2.05;;;1.27;;
29168;SDS011;16219;42.864;23.360;2022-10-16T06:33:14;2.05;;;1.45;;
29168;SDS011;16219;42.864;23.360;2022-10-16T06:35:41;1.63;;;1.52;;
29168;SDS011;16219;42.864;23.360;2022-10-16T06:38:08;2.15;;;1.70;;
29168;SDS011;16219;42.864;23.360;2022-10-16T06:40:35;3.13;;;2.67;;
29168;SDS011;16219;42.864;23.360;2022-10-16T06:43:03;3.15;;;2.60;;
29168;SDS011;16219;42.864;23.360;2022-10-16T06:45:30;1.77;;;1.67;;
29168;SDS011;16219;42.864;23.360;2022-10-16T06:47:59;3.92;;;2.55;;
29168;SDS011;16219;42.864;23.360;2022-10-16T06:50:26;1.35;;;1.33;;
29168;SDS011;16219;42.864;23.360;2022-10-16T06:52:53;2.53;;;1.60;;
29168;SDS011;16219;42.864;23.360;2022-10-16T06:55:20;1.40;;;1.30;;
29168;SDS011;16219;42.864;23.360;2022-10-16T06:57:47;3.78;;;1.70;;
29168;SDS011;16219;42.864;23.360;2022-10-16T07:00:15;2.65;;;2.05;;
29168;SDS011;16219;42.864;23.360;2022-10-16T07:02:43;3.05;;;1.33;;
29168;SDS011;16219;42.864;23.360;2022-10-16T07:05:11;1.80;;;1.70;;
29168;SDS011;16219;42.864;23.360;2022-10-16T07:07:38;2.65;;;1.58;;
29168;SDS011;16219;42.864;23.360;2022-10-16T07:10:06;1.13;;;0.95;;
29168;SDS011;16219;42.864;23.360;2022-10-16T07:12:33;1.35;;;1.27;;
29168;SDS011;16219;42.864;23.360;2022-10-16T07:15:00;2.17;;;1.92;;
29168;SDS011;16219;42.864;23.360;2022-10-16T07:17:28;2.17;;;2.00;;
29168;SDS011;16219;42.864;23.360;2022-10-16T07:19:55;1.55;;;1.35;;
29168;SDS011;16219;42.864;23.360;2022-10-16T07:22:23;12.02;;;1.80;;
29168;SDS011;16219;42.864;23.360;2022-10-16T07:24:51;8.43;;;2.30;;
29168;SDS011;16219;42.864;23.360;2022-10-16T07:27:18;1.27;;;1.20;;
29168;SDS011;16219;42.864;23.360;2022-10-16T07:29:47;1.55;;;1.45;;
29168;SDS011;16219;42.864;23.360;2022-10-16T07:32:14;4.28;;;2.13;;
29168;SDS011;16219;42.864;23.360;2022-10-16T07:34:42;2.15;;;1.95;;
29168;SDS011;16219;42.864;23.360;2022-10-16T07:37:09;2.53;;;2.28;;
29168;SDS011;16219;42.864;23.360;2022-10-16T07:39:38;2.95;;;2.28;;
29168;SDS011;16219;42.864;23.360;2022-10-16T07:42:05;3.42;;;2.40;;
29168;SDS011;16219;42.864;23.360;2022-10-16T07:44:33;2.38;;;2.17;;
29168;SDS011;16219;42.864;23.360;2022-10-16T07:47:00;2.10;;;1.92;;
29168;SDS011;16219;42.864;23.360;2022-10-16T07:49:27;2.22;;;2.05;;
29168;SDS011;16219;42.864;23.360;2022-10-16T07:51:54;2.55;;;2.15;;
29168;SDS011;16219;42.864;23.360;2022-10-16T07:54:21;2.00;;;1.42;;
29168;SDS011;16219;42.864;23.360;2022-10-16T07:56:50;1.20;;;1.10;;
29168;SDS011;16219;42.864;23.360;2022-10-16T07:59:17;3.03;;;1.77;;
29168;SDS011;16219;42.864;23.360;2022-10-16T08:01:44;1.45;;;1.40;;
29168;SDS011;16219;42.864;23.360;2022-10-16T08:04:11;2.15;;;1.83;;
29168;SDS011;16219;42.864;23.360;2022-10-16T08:06:39;1.55;;;1.35;;
29168;SDS011;16219;42.864;23.360;2022-10-16T08:09:07;4.13;;;1.70;;
29168;SDS011;16219;42.864;23.360;2022-10-16T08:11:38;3.67;;;1.35;;
29168;SDS011;16219;42.864;23.360;2022-10-16T08:14:07;1.35;;;1.25;;
29168;SDS011;16219;42.864;23.360;2022-10-16T08:16:35;1.58;;;1.20;;
29168;SDS011;16219;42.864;23.360;2022-10-16T08:19:02;2.80;;;1.85;;
29168;SDS011;16219;42.864;23.360;2022-10-16T08:21:30;1.40;;;1.17;;
29168;SDS011;16219;42.864;23.360;2022-10-16T08:23:57;2.83;;;2.42;;
29168;SDS011;16219;42.864;23.360;2022-10-16T08:26:25;1.15;;;0.95;;
29168;SDS011;16219;42.864;23.360;2022-10-16T08:28:54;1.15;;;1.15;;
29168;SDS011;16219;42.864;23.360;2022-10-16T08:31:23;1.50;;;1.40;;
29168;SDS011;16219;42.864;23.360;2022-10-16T08:33:51;1.60;;;1.50;;
29168;SDS011;16219;42.864;23.360;2022-10-16T08:36:18;6.38;;;2.28;;
29168;SDS011;16219;42.864;23.360;2022-10-16T08:38:47;1.73;;;1.42;;
29168;SDS011;16219;42.864;23.360;2022-10-16T08:41:23;3.05;;;1.67;;
29168;SDS011;16219;42.864;23.360;2022-10-16T08:44:06;1.15;;;1.08;;
29168;SDS011;16219;42.864;23.360;2022-10-16T08:46:50;0.90;;;0.90;;
29168;SDS011;16219;42.864;23.360;2022-10-16T08:49:26;2.63;;;1.58;;
29168;SDS011;16219;42.864;23.360;2022-10-16T08:51:54;4.20;;;1.33;;
29168;SDS011;16219;42.864;23.360;2022-10-16T08:54:26;1.17;;;1.08;;
29168;SDS011;16219;42.864;23.360;2022-10-16T08:56:57;1.10;;;1.00;;
29168;SDS011;16219;42.864;23.360;2022-10-16T08:59:34;0.80;;;0.80;;
29168;SDS011;16219;42.864;23.360;2022-10-16T09:02:08;2.17;;;0.80;;
29168;SDS011;16219;42.864;23.360;2022-10-16T09:04:53;1.45;;;1.27;;
29168;SDS011;16219;42.864;23.360;2022-10-16T09:07:39;0.95;;;0.95;;
29168;SDS011;16219;42.864;23.360;2022-10-16T09:10:20;1.45;;;1.08;;
29168;SDS011;16219;42.864;23.360;2022-10-16T09:12:58;1.40;;;1.30;;
29168;SDS011;16219;42.864;23.360;2022-10-16T09:15:37;0.88;;;0.88;;
29168;SDS011;16219;42.864;23.360;2022-10-16T09:18:12;1.10;;;1.00;;
29168;SDS011;16219;42.864;23.360;2022-10-16T09:20:46;0.82;;;0.80;;
29168;SDS011;16219;42.864;23.360;2022-10-16T09:23:18;1.38;;;0.85;;
29168;SDS011;16219;42.864;23.360;2022-10-16T09:25:49;0.60;;;0.60;;
29168;SDS011;16219;42.864;23.360;2022-10-16T09:28:17;1.20;;;0.85;;
29168;SDS011;16219;42.864;23.360;2022-10-16T09:30:45;2.15;;;1.00;;
29168;SDS011;16219;42.864;23.360;2022-10-16T09:33:15;0.73;;;0.73;;
29168;SDS011;16219;42.864;23.360;2022-10-16T09:35:45;0.75;;;0.75;;
29168;SDS011;16219;42.864;23.360;2022-10-16T09:38:22;2.42;;;1.30;;
29168;SDS011;16219;42.864;23.360;2022-10-16T09:40:53;1.88;;;1.38;;
29168;SDS011;16219;42.864;23.360;2022-10-16T09:43:24;1.52;;;1.00;;
29168;SDS011;16219;42.864;23.360;2022-10-16T09:45:57;0.75;;;0.70;;
29168;SDS011;16219;42.864;23.360;2022-10-16T09:48:28;1.20;;;1.05;;
29168;SDS011;16219;42.864;23.360;2022-10-16T09:51:02;1.65;;;1.13;;
29168;SDS011;16219;42.864;23.360;2022-10-16T09:53:41;1.52;;;1.42;;
29168;SDS011;16219;42.864;23.360;2022-10-16T09:56:10;1.45;;;1.35;;
29168;SDS011;16219;42.864;23.360;2022-10-16T09:58:43;0.73;;;0.73;;
29168;SDS011;16219;42.864;23.360;2022-10-16T10:01:16;0.88;;;0.88;;
29168;SDS011;16219;42.864;23.360;2022-10-16T10:03:45;1.00;;;0.85;;
29168;SDS011;16219;42.864;23.360;2022-10-16T10:06:16;1.15;;;1.10;;
29168;SDS011;16219;42.864;23.360;2022-10-16T10:08:57;0.55;;;0.55;;
29168;SDS011;16219;42.864;23.360;2022-10-16T10:11:44;1.50;;;1.23;;
29168;SDS011;16219;42.864;23.360;2022-10-16T10:14:18;0.70;;;0.70;;
29168;SDS011;16219;42.864;23.360;2022-10-16T10:16:48;0.93;;;0.93;;
29168;SDS011;16219;42.864;23.360;2022-10-16T10:19:19;0.73;;;0.73;;
29168;SDS011;16219;42.864;23.360;2022-10-16T10:21:47;0.52;;;0.52;;
29168;SDS011;16219;42.864;23.360;2022-10-16T10:24:16;0.68;;;0.63;;
29168;SDS011;16219;42.864;23.360;2022-10-16T10:26:48;0.77;;;0.77;;
29168;SDS011;16219;42.864;23.360;2022-10-16T10:29:24;0.80;;;0.80;;
29168;SDS011;16219;42.864;23.360;2022-10-16T10:32:00;0.30;;;0.30;;
29168;SDS011;16219;42.864;23.360;2022-10-16T10:34:41;0.98;;;0.80;;
29168;SDS011;16219;42.864;23.360;2022-10-16T10:37:23;0.50;;;0.50;;
29168;SDS011;16219;42.864;23.360;2022-10-16T10:40:00;5.47;;;0.95;;
29168;SDS011;16219;42.864;23.360;2022-10-16T10:42:33;0.40;;;0.40;;
29168;SDS011;16219;42.864;23.360;2022-10-16T10:45:12;1.52;;;0.57;;
29168;SDS011;16219;42.864;23.360;2022-10-16T10:47:48;1.48;;;0.75;;
29168;SDS011;16219;42.864;23.360;2022-10-16T10:50:33;0.82;;;0.82;;
29168;SDS011;16219;42.864;23.360;2022-10-16T10:53:08;0.30;;;0.30;;
29168;SDS011;16219;42.864;23.360;2022-10-16T10:55:45;0.43;;;0.43;;
29168;SDS011;16219;42.864;23.360;2022-10-16T10:58:22;0.95;;;0.73;;
29168;SDS011;16219;42.864;23.360;2022-10-16T11:01:04;0.50;;;0.50;;
29168;SDS011;16219;42.864;23.360;2022-10-16T11:03:41;0.35;;;0.35;;
29168;SDS011;16219;42.864;23.360;2022-10-16T11:06:24;0.30;;;0.30;;
29168;SDS011;16219;42.864;23.360;2022-10-16T11:08:57;0.20;;;0.20;;
29168;SDS011;16219;42.864;23.360;2022-10-16T11:11:30;0.50;;;0.50;;
29168;SDS011;16219;42.864;23.360;2022-10-16T11:14:03;0.30;;;0.30;;
29168;SDS011;16219;42.864;23.360;2022-10-16T11:16:39;0.40;;;0.40;;
29168;SDS011;16219;42.864;23.360;2022-10-16T11:19:11;0.52;;;0.52;;
29168;SDS011;16219;42.864;23.360;2022-10-16T11:21:46;0.28;;;0.28;;
29168;SDS011;16219;42.864;23.360;2022-10-16T11:24:28;0.40;;;0.40;;
29168;SDS011;16219;42.864;23.360;2022-10-16T11:27:06;1.35;;;0.90;;
29168;SDS011;16219;42.864;23.360;2022-10-16T11:29:35;0.20;;;0.20;;
29168;SDS011;16219;42.864;23.360;2022-10-16T11:32:15;0.63;;;0.63;;
29168;SDS011;16219;42.864;23.360;2022-10-16T11:34:51;0.50;;;0.50;;
29168;SDS011;16219;42.864;23.360;2022-10-16T11:37:25;4.57;;;0.65;;
29168;SDS011;16219;42.864;23.360;2022-10-16T11:39:58;0.52;;;0.52;;
29168;SDS011;16219;42.864;23.360;2022-10-16T11:42:44;0.28;;;0.28;;
29168;SDS011;16219;42.864;23.360;2022-10-16T11:45:21;0.40;;;0.40;;
29168;SDS011;16219;42.864;23.360;2022-10-16T11:47:54;0.40;;;0.40;;
29168;SDS011;16219;42.864;23.360;2022-10-16T11:50:28;1.05;;;0.43;;
29168;SDS011;16219;42.864;23.360;2022-10-16T11:53:03;0.50;;;0.50;;
29168;SDS011;16219;42.864;23.360;2022-10-16T11:55:38;0.25;;;0.25;;
29168;SDS011;16219;42.864;23.360;2022-10-16T11:58:07;0.50;;;0.50;;
29168;SDS011;16219;42.864;23.360;2022-10-16T12:00:43;0.20;;;0.20;;
29168;SDS011;16219;42.864;23.360;2022-10-16T12:03:19;0.25;;;0.25;;
29168;SDS011;16219;42.864;23.360;2022-10-16T12:05:55;0.32;;;0.32;;
29168;SDS011;16219;42.864;23.360;2022-10-16T12:08:30;0.30;;;0.30;;
29168;SDS011;16219;42.864;23.360;2022-10-16T12:11:07;0.20;;;0.20;;
29168;SDS011;16219;42.864;23.360;2022-10-16T12:13:36;0.20;;;0.20;;
29168;SDS011;16219;42.864;23.360;2022-10-16T12:16:05;0.68;;;0.60;;
29168;SDS011;16219;42.864;23.360;2022-10-16T12:18:33;0.75;;;0.68;;
29168;SDS011;16219;42.864;23.360;2022-10-16T12:21:03;0.22;;;0.22;;
29168;SDS011;16219;42.864;23.360;2022-10-16T12:23:33;0.38;;;0.38;;
29168;SDS011;16219;42.864;23.360;2022-10-16T12:26:05;0.93;;;0.77;;
29168;SDS011;16219;42.864;23.360;2022-10-16T12:28:32;0.20;;;0.20;;
29168;SDS011;16219;42.864;23.360;2022-10-16T12:31:02;0.68;;;0.68;;
29168;SDS011;16219;42.864;23.360;2022-10-16T12:33:31;0.20;;;0.20;;
29168;SDS011;16219;42.864;23.360;2022-10-16T12:36:01;0.10;;;0.10;;
29168;SDS011;16219;42.864;23.360;2022-10-16T12:38:33;0.57;;;0.57;;
29168;SDS011;16219;42.864;23.360;2022-10-16T12:41:28;2.83;;;0.30;;
29168;SDS011;16219;42.864;23.360;2022-10-16T12:43:56;0.70;;;0.70;;
29168;SDS011;16219;42.864;23.360;2022-10-16T12:46:33;0.60;;;0.60;;
29168;SDS011;16219;42.864;23.360;2022-10-16T12:49:06;0.25;;;0.22;;
29168;SDS011;16219;42.864;23.360;2022-10-16T12:51:46;0.40;;;0.40;;
29168;SDS011;16219;42.864;23.360;2022-10-16T12:54:16;0.30;;;0.30;;
29168;SDS011;16219;42.864;23.360;2022-10-16T12:56:48;0.30;;;0.30;;
29168;SDS011;16219;42.864;23.360;2022-10-16T12:59:25;0.38;;;0.20;;
29168;SDS011;16219;42.864;23.360;2022-10-16T13:02:06;0.68;;;0.65;;
29168;SDS011;16219;42.864;23.360;2022-10-16T13:04:59;1.08;;;0.57;;
29168;SDS011;16219;42.864;23.360;2022-10-16T13:07:44;0.35;;;0.35;;
29168;SDS011;16219;42.864;23.360;2022-10-16T13:10:23;0.30;;;0.30;;
29168;SDS011;16219;42.864;23.360;2022-10-16T13:13:05;0.65;;;0.60;;
29168;SDS011;16219;42.864;23.360;2022-10-16T13:15:48;3.70;;;1.23;;
29168;SDS011;16219;42.864;23.360;2022-10-16T13:18:26;0.30;;;0.30;;
29168;SDS011;16219;42.864;23.360;2022-10-16T13:21:04;0.50;;;0.50;;
29168;SDS011;16219;42.864;23.360;2022-10-16T13:23:44;1.10;;;1.00;;
29168;SDS011;16219;42.864;23.360;2022-10-16T13:26:23;0.50;;;0.50;;
29168;SDS011;16219;42.864;23.360;2022-10-16T13:29:02;0.38;;;0.38;;
29168;SDS011;16219;42.864;23.360;2022-10-16T13:31:30;0.50;;;0.50;;
29168;SDS011;16219;42.864;23.360;2022-10-16T13:33:59;1.90;;;0.75;;
29168;SDS011;16219;42.864;23.360;2022-10-16T13:36:28;0.47;;;0.47;;
29168;SDS011;16219;42.864;23.360;2022-10-16T13:39:01;0.73;;;0.73;;
29168;SDS011;16219;42.864;23.360;2022-10-16T13:41:37;0.43;;;0.43;;
29168;SDS011;16219;42.864;23.360;2022-10-16T13:44:05;0.65;;;0.63;;
29168;SDS011;16219;42.864;23.360;2022-10-16T13:46:42;2.15;;;0.57;;
29168;SDS011;16219;42.864;23.360;2022-10-16T13:49:13;0.63;;;0.63;;
29168;SDS011;16219;42.864;23.360;2022-10-16T13:51:41;1.00;;;0.80;;
29168;SDS011;16219;42.864;23.360;2022-10-16T13:54:21;0.90;;;0.90;;
29168;SDS011;16219;42.864;23.360;2022-10-16T13:56:50;0.50;;;0.50;;
29168;SDS011;16219;42.864;23.360;2022-10-16T13:59:24;0.50;;;0.50;;
29168;SDS011;16219;42.864;23.360;2022-10-16T14:01:54;0.60;;;0.60;;
29168;SDS011;16219;42.864;23.360;2022-10-16T14:04:24;0.60;;;0.60;;
29168;SDS011;16219;42.864;23.360;2022-10-16T14:06:54;1.02;;;0.93;;
29168;SDS011;16219;42.864;23.360;2022-10-16T14:09:22;0.68;;;0.68;;
29168;SDS011;16219;42.864;23.360;2022-10-16T14:11:54;0.40;;;0.40;;
29168;SDS011;16219;42.864;23.360;2022-10-16T14:14:24;0.88;;;0.82;;
29168;SDS011;16219;42.864;23.360;2022-10-16T14:16:53;0.52;;;0.52;;
29168;SDS011;16219;42.864;23.360;2022-10-16T14:19:21;0.90;;;0.60;;
29168;SDS011;16219;42.864;23.360;2022-10-16T14:21:52;2.10;;;1.05;;
29168;SDS011;16219;42.864;23.360;2022-10-16T14:24:24;1.00;;;0.93;;
29168;SDS011;16219;42.864;23.360;2022-10-16T14:26:55;1.38;;;0.75;;
29168;SDS011;16219;42.864;23.360;2022-10-16T14:29:22;1.30;;;0.75;;
29168;SDS011;16219;42.864;23.360;2022-10-16T14:31:54;0.93;;;0.68;;
29168;SDS011;16219;42.864;23.360;2022-10-16T14:34:23;0.68;;;0.68;;
29168;SDS011;16219;42.864;23.360;2022-10-16T14:36:55;3.78;;;1.50;;
29168;SDS011;16219;42.864;23.360;2022-10-16T14:39:23;0.73;;;0.73;;
29168;SDS011;16219;42.864;23.360;2022-10-16T14:41:54;0.60;;;0.60;;
29168;SDS011;16219;42.864;23.360;2022-10-16T14:44:26;0.73;;;0.70;;
29168;SDS011;16219;42.864;23.360;2022-10-16T14:46:56;0.82;;;0.82;;
29168;SDS011;16219;42.864;23.360;2022-10-16T14:49:24;0.43;;;0.43;;
29168;SDS011;16219;42.864;23.360;2022-10-16T14:51:53;0.70;;;0.70;;
29168;SDS011;16219;42.864;23.360;2022-10-16T14:54:20;0.60;;;0.60;;